Accueil
METAR-TAF:

METAR-TAF

Aéroports :

Gênes, Italie

Aéroport de Gênes-Christophe Colomb

latitude: 44-25N, longitude: 008-51E, altitude: 2 m

Observation

Le bulletin a été fait il y a 33 minutes, à 20:20 UTC
Vent 3 kt de nord/nord-est, variant entre nord et est/nord-est
Température 17°C
Humidité 68%
Pression 1018 hPa
Visibilité 10 km ou plus
pas de nuages en-dessous de 1500 mètres et pas de cumulonimbus.

METAR: LIMJ 242020Z 03003KT 360V060 CAVOK 17/11 Q1018

Heure: 22:53 (20:53 UTC)

Prévision

Le bulletin a été fait il y a 3 heures et 53 minutes, à 17:00 UTC
Prévision valable du 24 à 18 UTC au 25 à 18 UTC
Vent 5 kt de direction variable
Visibilité 10 km ou plus
Nuages épars à une hauteur de 4000 ft

TAF: LIMJ 241700Z 2418/2518 VRB05KT 9999 SCT040

Observations et prévisions météorologiques de plus de 4000 aéroports (messages METAR et TAF).

Les stations disponibles sont représentées par des disques jaunes et rouges sur la carte.

Passer la souris dessus pour voir le nom de la station.

Cliquer dessus pour voir les observations et prévisions météorologiques.

Pour changer de carte: cliquez sur les boutons verts avec une croix noire pour zoomer, sur le bouton vert avec un tiret pour effectuer un zoom arrière, ou sur les flèches vertes pour les cartes adjacentes.


METAR-TAF: